Map

Track Data

SID SEASON NUMBER BASIN SUBBASIN NAME ISO_TIME NATURE LAT LON WMO_WIND WMO_PRES WMO_AGENCY TRACK_TYPE DIST2LAND LANDFALL IFLAG USA_AGENCY USA_ATCF_ID USA_LAT USA_LON USA_RECORD USA_STATUS USA_WIND USA_PRES USA_SSHS USA_R34_NE USA_R34_SE USA_R34_SW USA_R34_NW USA_R50_NE USA_R50_SE USA_R50_SW USA_R50_NW USA_R64_NE USA_R64_SE USA_R64_SW USA_R64_NW USA_POCI USA_ROCI USA_RMW USA_EYE TOKYO_LAT TOKYO_LON TOKYO_GRADE TOKYO_WIND TOKYO_PRES TOKYO_R50_DIR TOKYO_R50_LONG TOKYO_R50_SHORT TOKYO_R30_DIR TOKYO_R30_LONG TOKYO_R30_SHORT TOKYO_LAND CMA_LAT CMA_LON CMA_CAT CMA_WIND CMA_PRES HKO_LAT HKO_LON HKO_CAT HKO_WIND HKO_PRES NEWDELHI_LAT NEWDELHI_LON NEWDELHI_GRADE NEWDELHI_WIND NEWDELHI_PRES NEWDELHI_CI NEWDELHI_DP NEWDELHI_POCI REUNION_LAT REUNION_LON REUNION_TYPE REUNION_WIND REUNION_PRES REUNION_TNUM REUNION_CI REUNION_RMW REUNION_R34_NE REUNION_R34_SE REUNION_R34_SW REUNION_R34_NW REUNION_R50_NE REUNION_R50_SE REUNION_R50_SW REUNION_R50_NW REUNION_R64_NE REUNION_R64_SE REUNION_R64_SW REUNION_R64_NW BOM_LAT BOM_LON BOM_TYPE BOM_WIND BOM_PRES BOM_TNUM BOM_CI BOM_RMW BOM_R34_NE BOM_R34_SE BOM_R34_SW BOM_R34_NW BOM_R50_NE BOM_R50_SE BOM_R50_SW BOM_R50_NW BOM_R64_NE BOM_R64_SE BOM_R64_SW BOM_R64_NW BOM_ROCI BOM_POCI BOM_EYE BOM_POS_METHOD BOM_PRES_METHOD NADI_LAT NADI_LON NADI_CAT NADI_WIND NADI_PRES WELLINGTON_LAT WELLINGTON_LON WELLINGTON_WIND WELLINGTON_PRES DS824_LAT DS824_LON DS824_STAGE DS824_WIND DS824_PRES TD9636_LAT TD9636_LON TD9636_STAGE TD9636_WIND TD9636_PRES TD9635_LAT TD9635_LON TD9635_WIND TD9635_PRES TD9635_ROCI NEUMANN_LAT NEUMANN_LON NEUMANN_CLASS NEUMANN_WIND NEUMANN_PRES MLC_LAT MLC_LON MLC_CLASS MLC_WIND MLC_PRES USA_GUST BOM_GUST BOM_GUST_PER REUNION_GUST REUNION_GUST_PER USA_SEAHGT USA_SEARAD_NE USA_SEARAD_SE USA_SEARAD_SW USA_SEARAD_NW STORM_SPEED STORM_DIR
1948080S11156 1948 24 SP EA NOT_NAMED 1948-03-19 23:00:00 NR -11.3500 155.800 1002 bom main 369 379 ______O___O___ -1 -10.7000 156.100 1002 -12.0000 155.500 7 14 203
1948080S11156 1948 24 SP EA NOT_NAMED 1948-03-20 00:00:00 TS -11.5721 155.711 main 404 404 O_____P__OP___ jtwc_sh SH191948 -12.1000 155.500 -1 -10.8618 156.027 -10.9000 156.000 TC 25 1002 -12.0906 155.461 7 10 204
1948080S11156 1948 24 SP EA NOT_NAMED 1948-03-20 03:00:00 TS -11.9354 155.534 main 444 444 P_____P__PP___ SH191948 -12.3400 155.338 -1 -11.3458 155.810 -11.3698 155.798 TC -12.3627 155.343 7 8 205
1948080S11156 1948 24 SP EA NOT_NAMED 1948-03-20 06:00:00 TS -12.2916 155.369 main 489 489 O_____P__PP___ jtwc_sh SH191948 -12.6000 155.200 -1 -11.8255 155.597 -11.8365 155.598 TC -12.6365 155.221 7 8 203
1948080S11156 1948 24 SP EA NOT_NAMED 1948-03-20 09:00:00 TS -12.6585 155.217 main 539 534 P_____P__PP___ SH191948 -12.8925 155.100 -1 -12.2973 155.390 -12.2970 155.403 TC -12.9133 155.092 7 8 201
1948080S11156 1948 24 SP EA NOT_NAMED 1948-03-20 11:00:00 TS -12.9000 155.121 main 544 517 P_____P__PO___ SH191948 -13.0974 155.036 -1 -12.6060 155.256 -12.5991 155.278 TC -13.1000 155.000 7 15 228
1948080S11156 1948 24 SP EA NOT_NAMED 1948-03-20 12:00:00 TS -13.1610 154.645 main 514 503 O_____P__PP___ jtwc_sh SH191948 -13.2000 155.000 -1 -12.7581 155.192 -12.7483 155.216 TC -13.1942 154.952 7 16 224
1948080S11156 1948 24 SP EA NOT_NAMED 1948-03-20 15:00:00 TS -13.6834 154.335 main 523 523 P_____P__PP___ SH191948 -13.5000 154.857 -1 -13.2046 155.007 -13.1873 155.039 TC -13.4813 154.802 7 11 203
1948080S11156 1948 24 SP EA NOT_NAMED 1948-03-20 18:00:00 TS -14.2045 154.197 main 554 554 O_____P__PP___ jtwc_sh SH191948 -13.8000 154.700 -1 -13.6333 154.838 -13.6109 154.876 TC -13.7775 154.649 7 10 190
1948080S11156 1948 24 SP EA NOT_NAMED 1948-03-20 21:00:00 TS -14.6916 154.151 main 595 595 P_____P__PP___ SH191948 -14.0925 154.550 -1 -14.0412 154.688 -14.0161 154.728 TC -14.0860 154.497 7 9 0
1948080S11156 1948 24 SP EA NOT_NAMED 1948-03-20 23:00:00 TS -14.9287 154.173 1000 bom main 613 613 P_____O__PO___ SH191948 -14.2943 154.450 -1 -14.3000 154.600 1000 -14.2746 154.640 TC -14.3000 154.400 7 7 0
1948080S11156 1948 24 SP EA NOT_NAMED 1948-03-21 00:00:00 TS -15.0417 154.177 main 621 621 O_____P__OP___ jtwc_sh SH191948 -14.4000 154.400 -1 -14.4251 154.560 -14.4000 154.600 TC 30 1000 -14.4087 154.352 7 7 183
1948080S11156 1948 24 SP EA NOT_NAMED 1948-03-21 03:00:00 TS -15.3670 154.154 main 657 651 P_____P__PP___ SH191948 -14.7425 154.243 -1 -14.7852 154.455 -14.7610 154.492 TC -14.7454 154.215 7 6 185
1948080S11156 1948 24 SP EA NOT_NAMED 1948-03-21 06:00:00 TS -15.6688 154.113 main 679 679 O_____P__PP___ jtwc_sh SH191948 -15.1000 154.100 -1 -15.1270 154.368 -15.1036 154.403 TC -15.0955 154.086 7 6 185
1948080S11156 1948 24 SP EA NOT_NAMED 1948-03-21 09:00:00 TS -15.9553 154.098 main 707 707 P_____P__PP___ SH191948 -15.4425 153.992 -1 -15.4563 154.295 -15.4336 154.327 TC -15.4557 153.969 7 6 182
1948080S11156 1948 24 SP EA NOT_NAMED 1948-03-21 11:00:00 TS -16.1465 154.095 main 717 717 P_____P__PO___ SH191948 -15.6776 153.931 -1 -15.6718 154.252 -15.6495 154.281 TC -15.7000 153.900 7 6 0
1948080S11156 1948 24 SP EA NOT_NAMED 1948-03-21 12:00:00 TS -16.2445 154.095 main 723 702 O_____P__PP___ jtwc_sh SH191948 -15.8000 153.900 -1 -15.7790 154.232 -15.7569 154.260 TC -15.8204 153.871 7 6 176
1948080S11156 1948 24 SP EA NOT_NAMED 1948-03-21 15:00:00 TS -16.5588 154.100 main 695 675 P_____P__PP___ SH191948 -16.2000 153.793 -1 -16.1009 154.172 -16.0794 154.198 TC -16.1866 153.795 7 6 0
1948080S11156 1948 24 SP EA NOT_NAMED 1948-03-21 18:00:00 TS -16.8803 154.110 main 675 656 O_____P__PP___ jtwc_sh SH191948 -16.6000 153.700 -1 -16.4279 154.113 -16.4068 154.137 TC -16.5603 153.727 7 6 176
1948080S11156 1948 24 SP EA NOT_NAMED 1948-03-21 21:00:00 TS -17.1888 154.131 main 656 645 P_____P__PP___ SH191948 -16.9500 153.657 -1 -16.7658 154.048 -16.7451 154.073 TC -16.9416 153.656 7 6 177
1948080S11156 1948 24 SP EA NOT_NAMED 1948-03-21 23:00:00 TS -17.4043 154.141 998 bom main 645 639 P_____O__PO___ SH191948 -17.1802 153.625 -1 -17.0000 154.000 998 -16.9795 154.025 TC -17.2000 153.600 7 7 177
1948080S11156 1948 24 SP EA NOT_NAMED 1948-03-22 00:00:00 TS -17.5193 154.141 main 639 615 O_____P__OP___ jtwc_sh SH191948 -17.3000 153.600 -1 -17.1233 153.965 -17.1000 154.000 TC 35 998 -17.3312 153.563 7 8 183
1948080S11156 1948 24 SP EA NOT_NAMED 1948-03-22 03:00:00 TS -17.9027 154.120 main 615 579 P_____P__PP___ SH191948 -17.6925 153.458 -1 -17.5007 153.852 -17.4888 153.885 TC -17.7309 153.438 7 8 184
1948080S11156 1948 24 SP EA NOT_NAMED 1948-03-22 06:00:00 TS -18.3098 154.088 main 579 544 O_____P__PP___ jtwc_sh SH191948 -18.1000 153.300 -1 -17.8895 153.734 -17.8919 153.761 TC -18.1348 153.306 7 8 184
1948080S11156 1948 24 SP EA NOT_NAMED 1948-03-22 09:00:00 TS -18.7145 154.059 main 544 512 P_____P__PP___ SH191948 -18.5000 153.192 -1 -18.2893 153.611 -18.3073 153.634 TC -18.5365 153.177 7 8 184
1948080S11156 1948 24 SP EA NOT_NAMED 1948-03-22 11:00:00 TS -18.9852 154.035 main 512 503 P_____P__PO___ SH191948 -18.7667 153.131 -1 -18.5621 153.530 -18.5901 153.549 TC -18.8000 153.100 7 8 186
1948080S11156 1948 24 SP EA NOT_NAMED 1948-03-22 12:00:00 TS -19.1199 154.020 main 503 471 O_____P__PP___ jtwc_sh SH191948 -18.9000 153.100 -1 -18.7002 153.490 -18.7331 153.507 TC -18.9259 153.067 7 8 188
1948080S11156 1948 24 SP EA NOT_NAMED 1948-03-22 15:00:00 TS -19.5258 153.960 main 471 433 P_____P__PP___ SH191948 -19.3075 152.993 -1 -19.1221 153.371 -19.1672 153.386 TC -19.2970 152.979 7 8 189
1948080S11156 1948 24 SP EA NOT_NAMED 1948-03-22 18:00:00 TS -19.9251 153.891 main 433 396 O_____P__PP___ jtwc_sh SH191948 -19.7000 152.900 -1 -19.5548 153.260 -19.6076 153.274 TC -19.6656 152.904 7 8 189
1948080S11156 1948 24 SP EA NOT_NAMED 1948-03-22 21:00:00 TS -20.3044 153.825 main 396 382 P_____P__PP___ SH191948 -20.0425 152.842 -1 -19.9983 153.160 -20.0526 153.177 TC -20.0412 152.839 7 8 189
1948080S11156 1948 24 SP EA NOT_NAMED 1948-03-22 23:00:00 TS -20.5568 153.786 994 bom main 375 369 P_____O__PO___ SH191948 -20.2745 152.814 -1 -20.3000 153.100 994 -20.3507 153.123 TC -20.3000 152.800 7 8 187
1948080S11156 1948 24 SP EA NOT_NAMED 1948-03-23 00:00:00 TS -20.6869 153.768 main 369 337 O_____P__OP___ jtwc_sh SH191948 -20.4000 152.800 -1 -20.4555 153.065 -20.5000 153.100 TC 40 994 -20.4399 152.775 7 8 187
1948080S11156 1948 24 SP EA NOT_NAMED 1948-03-23 03:00:00 TS -21.1041 153.718 main 337 319 P_____P__PP___ SH191948 -20.8425 152.750 -1 -20.9320 152.965 -20.9727 153.017 TC -20.8726 152.704 7 8 186
1948080S11156 1948 24 SP EA NOT_NAMED 1948-03-23 06:00:00 TS -21.5220 153.679 main 319 295 O_____P__PP___ jtwc_sh SH191948 -21.3000 152.700 -1 -21.4174 152.879 -21.4536 152.947 TC -21.3103 152.645 7 8 185
1948080S11156 1948 24 SP EA NOT_NAMED 1948-03-23 09:00:00 TS -21.9182 153.643 main 295 289 P_____P__PP___ SH191948 -21.7150 152.635 -1 -21.9040 152.815 -21.9354 152.897 TC -21.7343 152.608 7 8 183
1948080S11156 1948 24 SP EA NOT_NAMED 1948-03-23 11:00:00 TS -22.1691 153.631 main 280 272 P_____P__PO___ SH191948 -21.9750 152.605 -1 -22.2251 152.789 -22.2535 152.876 TC -22.0000 152.600 7 7 182
1948080S11156 1948 24 SP EA NOT_NAMED 1948-03-23 12:00:00 TS -22.2891 153.631 main 272 247 O_____P__PP___ jtwc_sh SH191948 -22.1000 152.600 -1 -22.3839 152.781 -22.4108 152.870 TC -22.1180 152.598 7 7 178
1948080S11156 1948 24 SP EA NOT_NAMED 1948-03-23 15:00:00 TS -22.6334 153.657 main 249 238 P_____P__PP___ SH191948 -22.4650 152.635 -1 -22.8494 152.788 -22.8723 152.872 TC -22.4486 152.613 7 7 176
1948080S11156 1948 24 SP EA NOT_NAMED 1948-03-23 16:00:00 TS -22.7423 153.673 bom main 238 216 P_____O__PP___ SH191948 -22.5800 152.656 -1 -23.0000 152.800 -23.0218 152.880 TC -22.5536 152.625 7 7 171
1948080S11156 1948 24 SP EA NOT_NAMED 1948-03-23 18:00:00 TS -22.9531 153.717 main 205 185 O_____P__PP___ jtwc_sh SH191948 -22.8000 152.700 -1 -23.3017 152.832 -23.3126 152.907 TC -22.7608 152.659 7 6 166
1948080S11156 1948 24 SP EA NOT_NAMED 1948-03-23 21:00:00 TS -23.2421 153.802 main 185 164 P_____P__PP___ SH191948 -23.0850 152.735 -1 -23.7338 152.918 -23.7243 152.982 TC -23.0766 152.734 7 6 163
1948080S11156 1948 24 SP EA NOT_NAMED 1948-03-23 23:00:00 TS -23.4380 153.878 997 bom main 167 157 P_____O__PO___ SH191948 -23.2855 152.772 -1 -24.0000 153.000 997 -23.9792 153.055 TC -23.3000 152.800 7 6 161
1948080S11156 1948 24 SP EA NOT_NAMED 1948-03-24 00:00:00 TS -23.5440 153.920 main 157 123 O_____P__OP___ jtwc_sh SH191948 -23.4000 152.800 -1 -24.1225 153.033 -24.1000 153.100 TC 35 997 -23.4293 152.826 7 8 160
1948080S11156 1948 24 SP EA NOT_NAMED 1948-03-24 03:00:00 TS -23.9112 154.066 main 129 106 P_____P__PP___ SH191948 -23.8425 152.927 -1 -24.4511 153.145 -24.4343 153.266 TC -23.8364 152.920 7 8 158
1948080S11156 1948 24 SP EA NOT_NAMED 1948-03-24 06:00:00 TS -24.2828 154.245 main 106 106 O_____P__PP___ jtwc_sh SH191948 -24.3000 153.100 -1 -24.7298 153.283 -24.7303 153.474 TC -24.2528 153.052 7 8 154
1948080S11156 1948 24 SP EA NOT_NAMED 1948-03-24 09:00:00 TS -24.6117 154.442 main 110 110 P_____P__PP___ SH191948 -24.6800 153.285 -1 -24.9697 153.456 -24.9933 153.721 TC -24.6536 153.238 7 7 149
1948080S11156 1948 24 SP EA NOT_NAMED 1948-03-24 11:00:00 TS -24.8104 154.590 main 122 121 P_____P__PO___ SH191948 -24.9000 153.425 -1 -25.1136 153.596 -25.1530 153.902 TC -24.9000 153.400 7 7 145
1948080S11156 1948 24 SP EA NOT_NAMED 1948-03-24 12:00:00 TS -24.9024 154.669 main 131 130 O_____P__PP___ jtwc_sh SH191948 -25.0000 153.500 -1 -25.1820 153.674 -25.2287 153.998 TC -25.0081 153.478 7 7 139
1948080S11156 1948 24 SP EA NOT_NAMED 1948-03-24 15:00:00 TS -25.1517 154.913 main 152 152 P_____P__PP___ SH191948 -25.2572 153.698 -1 -25.3776 153.944 -25.4417 154.301 TC -25.3049 153.754 7 7 134
1948080S11156 1948 24 SP EA NOT_NAMED 1948-03-24 18:00:00 TS -25.3803 155.213 main 186 186 O_____P__PP___ jtwc_sh SH191948 -25.5000 154.000 -1 -25.5674 154.278 -25.6377 154.623 TC -25.5729 154.106 7 8 126
1948080S11156 1948 24 SP EA NOT_NAMED 1948-03-24 21:00:00 TS -25.6043 155.609 main 230 230 P_____P__PP___ SH191948 -25.7999 154.482 -1 -25.7622 154.684 -25.8220 154.958 TC -25.8286 154.548 7 9 120
1948080S11156 1948 24 SP EA NOT_NAMED 1948-03-24 23:00:00 TS -25.7547 155.925 990 bom main 266 266 P_____O__PO___ SH191948 -26.0030 154.884 -1 -25.9000 155.000 990 4 -25.9410 155.186 TC -26.0000 154.900 7 10 117
1948080S11156 1948 24 SP EA NOT_NAMED 1948-03-25 00:00:00 TS -25.8297 156.109 main 285 285 O_____P__OP___ jtwc_sh SH191948 -26.1000 155.100 -1 -25.9724 155.172 -26.0000 155.300 TC 45 990 -26.0931 155.092 7 11 116
1948080S11156 1948 24 SP EA NOT_NAMED 1948-03-25 03:00:00 TS -26.0746 156.652 main 352 352 P_____P___P___ SH191948 -26.3497 155.763 -1 -26.2030 155.746 TC -26.3728 155.745 7 11 117
1948080S11156 1948 24 SP EA NOT_NAMED 1948-03-25 06:00:00 TS -26.3381 157.221 main 406 406 O_____P___P___ jtwc_sh SH191948 -26.6000 156.500 -1 -26.4509 156.395 TC -26.6503 156.483 7 12 118
1948080S11156 1948 24 SP EA NOT_NAMED 1948-03-25 09:00:00 TS -26.6323 157.844 main 451 451 P_____P___P___ SH191948 -26.8999 157.292 -1 -26.7122 157.109 TC -26.9225 157.269 7 13 118
1948080S11156 1948 24 SP EA NOT_NAMED 1948-03-25 11:00:00 TS -26.8226 158.255 main 488 485 P_____P___O___ SH191948 -27.1030 157.834 -1 -26.8919 157.617 TC -27.1000 157.800 7 12 117
1948080S11156 1948 24 SP EA NOT_NAMED 1948-03-25 12:00:00 TS -26.9091 158.449 main 494 494 O_____P___P___ jtwc_sh SH191948 -27.2000 158.100 -1 -26.9830 157.879 TC -27.1806 158.063 7 10 115
1948080S11156 1948 24 SP EA NOT_NAMED 1948-03-25 15:00:00 TS -27.1003 158.933 main 535 535 P_____P___P___ SH191948 -27.4570 158.858 -1 -27.2597 158.694 TC -27.4146 158.868 7 9 113
1948080S11156 1948 24 SP EA NOT_NAMED 1948-03-25 18:00:00 TS -27.2730 159.403 main 578 578 O_____P___P___ jtwc_sh SH191948 -27.7000 159.600 -1 -27.5387 159.542 TC -27.6509 159.669 7 9 113
1948080S11156 1948 24 SP EA NOT_NAMED 1948-03-25 21:00:00 TS -27.4688 159.915 main 623 623 P_____P___P___ SH191948 -27.9348 160.366 -1 -27.8167 160.413 TC -27.9078 160.430 7 10 116
1948080S11156 1948 24 SP MM NOT_NAMED 1948-03-25 23:00:00 TS -27.6438 160.278 998 bom main 661 659 P_____O___O___ SH191948 -28.1052 160.862 -1 -28.0000 161.000 998 TC -28.1000 160.900 7 11 120
1948080S11156 1948 24 SP MM NOT_NAMED 1948-03-26 00:00:00 TS -27.7489 160.456 main 679 678 O_________P___ jtwc_sh SH191948 -28.2000 161.100 -1 -28.1932 161.138 7 15 126
1948080S11156 1948 24 SP MM NOT_NAMED 1948-03-26 03:00:00 TS -28.2319 161.191 main 743 742 P_________P___ SH191948 -28.5199 161.803 -1 -28.4948 161.812 7 17 129
1948080S11156 1948 24 SP MM NOT_NAMED 1948-03-26 06:00:00 TS -28.8309 161.971 main 817 816 O_________P___ jtwc_sh SH191948 -28.9000 162.400 -1 -28.8461 162.401 7 18 133
1948080S11156 1948 24 SP MM NOT_NAMED 1948-03-26 09:00:00 TS -29.4692 162.696 main 884 880 P_________P___ SH191948 -29.3122 162.875 -1 -29.2684 162.870 7 18 137
1948080S11156 1948 24 SP MM NOT_NAMED 1948-03-26 11:00:00 TS -29.9190 163.141 main 910 910 P_________O___ SH191948 -29.6275 163.108 -1 -29.6000 163.100 7 18 141
1948080S11156 1948 24 SP MM NOT_NAMED 1948-03-26 12:00:00 TS -30.1787 163.361 main 931 897 O_________P___ jtwc_sh SH191948 -29.8000 163.200 -1 -29.7830 163.187 7 19 143
1948080S11156 1948 24 SP MM NOT_NAMED 1948-03-26 15:00:00 TS -30.9233 164.005 main 897 797 P_________P___ SH191948 -30.2832 163.142 -1 -30.3935 163.344 7 20 142
1948080S11156 1948 24 SP MM NOT_NAMED 1948-03-26 18:00:00 TS -31.7293 164.778 main 789 676 O_________P___ jtwc_sh SH191948 -31.0000 163.500 -1 -31.0760 163.383 7 22 138
1948080S11156 1948 24 SP MM NOT_NAMED 1948-03-26 21:00:00 TS -32.5499 165.731 main 676 604 P_________P___ SH191948 -32.1002 164.976 -1 -31.8035 163.345 7 23 134
1948080S11156 1948 24 SP MM NOT_NAMED 1948-03-26 23:00:00 TS -33.0485 166.373 main 595 532 P_________O___ SH191948 -32.9605 166.417 -1 -32.3000 163.300 7 30 125
1948080S11156 1948 24 SP MM NOT_NAMED 1948-03-27 00:00:00 TS -33.4000 167.200 main 511 O_____________ jtwc_sh SH201948 -33.4000 167.200 -1 7 46 117

Digital Typhoon Data and Search

About IBTrACS Database

This database is a web-friendly format of International Best Track Archive for Climate Stewardship (IBTrACS), a global best track data archive curated by NOAA dating back to 1842.

Updated: 2021-11-26